sensor_id;sensor_type;location;lat;lon;timestamp;temperature;humidity
23081;DHT22;11708;50.570;8.532;2023-04-26T00:02:21;4.20;99.90
23081;DHT22;11708;50.570;8.532;2023-04-26T00:04:50;4.20;99.90
23081;DHT22;11708;50.570;8.532;2023-04-26T00:07:21;4.20;99.90
23081;DHT22;11708;50.570;8.532;2023-04-26T00:09:46;4.10;99.90
23081;DHT22;11708;50.570;8.532;2023-04-26T00:12:12;4.10;99.90
23081;DHT22;11708;50.570;8.532;2023-04-26T00:14:38;4.10;99.90
23081;DHT22;11708;50.570;8.532;2023-04-26T00:17:03;4.00;99.90
23081;DHT22;11708;50.570;8.532;2023-04-26T00:19:29;4.00;99.90
23081;DHT22;11708;50.570;8.532;2023-04-26T00:21:56;3.90;99.90
23081;DHT22;11708;50.570;8.532;2023-04-26T00:24:22;3.90;99.90
23081;DHT22;11708;50.570;8.532;2023-04-26T00:26:47;3.80;99.90
23081;DHT22;11708;50.570;8.532;2023-04-26T00:29:13;3.70;99.90
23081;DHT22;11708;50.570;8.532;2023-04-26T00:31:38;3.80;99.90
23081;DHT22;11708;50.570;8.532;2023-04-26T00:34:04;3.70;99.90
23081;DHT22;11708;50.570;8.532;2023-04-26T00:36:29;3.70;99.90
23081;DHT22;11708;50.570;8.532;2023-04-26T00:38:56;3.60;99.90
23081;DHT22;11708;50.570;8.532;2023-04-26T00:41:22;3.60;99.90
23081;DHT22;11708;50.570;8.532;2023-04-26T00:43:48;3.50;99.90
23081;DHT22;11708;50.570;8.532;2023-04-26T00:46:14;3.50;99.90
23081;DHT22;11708;50.570;8.532;2023-04-26T00:48:39;3.60;99.90
23081;DHT22;11708;50.570;8.532;2023-04-26T00:51:06;3.60;99.90
23081;DHT22;11708;50.570;8.532;2023-04-26T00:53:31;3.50;99.90
23081;DHT22;11708;50.570;8.532;2023-04-26T00:55:58;3.50;99.90
23081;DHT22;11708;50.570;8.532;2023-04-26T00:58:24;3.50;99.90
23081;DHT22;11708;50.570;8.532;2023-04-26T01:00:50;3.40;99.90
23081;DHT22;11708;50.570;8.532;2023-04-26T01:03:16;3.50;99.90
23081;DHT22;11708;50.570;8.532;2023-04-26T01:05:42;3.50;99.90
23081;DHT22;11708;50.570;8.532;2023-04-26T01:08:07;3.40;99.90
23081;DHT22;11708;50.570;8.532;2023-04-26T01:10:34;3.50;99.90
23081;DHT22;11708;50.570;8.532;2023-04-26T01:13:00;3.40;99.90
23081;DHT22;11708;50.570;8.532;2023-04-26T01:15:28;3.30;99.90
23081;DHT22;11708;50.570;8.532;2023-04-26T01:17:55;3.30;99.90
23081;DHT22;11708;50.570;8.532;2023-04-26T01:20:22;3.30;99.90
23081;DHT22;11708;50.570;8.532;2023-04-26T01:22:47;3.20;99.90
23081;DHT22;11708;50.570;8.532;2023-04-26T01:25:13;3.50;99.90
23081;DHT22;11708;50.570;8.532;2023-04-26T01:27:39;3.20;99.90
23081;DHT22;11708;50.570;8.532;2023-04-26T01:30:05;3.10;99.90
23081;DHT22;11708;50.570;8.532;2023-04-26T01:32:30;3.10;99.90
23081;DHT22;11708;50.570;8.532;2023-04-26T01:34:56;2.90;99.90
23081;DHT22;11708;50.570;8.532;2023-04-26T01:37:21;3.10;99.90
23081;DHT22;11708;50.570;8.532;2023-04-26T01:39:47;3.00;99.90
23081;DHT22;11708;50.570;8.532;2023-04-26T01:42:13;3.00;99.90
23081;DHT22;11708;50.570;8.532;2023-04-26T01:44:38;3.00;99.90
23081;DHT22;11708;50.570;8.532;2023-04-26T01:47:04;3.00;99.90
23081;DHT22;11708;50.570;8.532;2023-04-26T01:49:30;3.00;99.90
23081;DHT22;11708;50.570;8.532;2023-04-26T01:51:57;2.90;99.90
23081;DHT22;11708;50.570;8.532;2023-04-26T01:54:23;3.00;99.90
23081;DHT22;11708;50.570;8.532;2023-04-26T01:56:48;2.90;99.90
23081;DHT22;11708;50.570;8.532;2023-04-26T01:59:14;2.90;99.90
23081;DHT22;11708;50.570;8.532;2023-04-26T02:01:43;2.80;99.90
23081;DHT22;11708;50.570;8.532;2023-04-26T02:04:08;2.80;99.90
23081;DHT22;11708;50.570;8.532;2023-04-26T02:06:34;2.80;99.90
23081;DHT22;11708;50.570;8.532;2023-04-26T02:09:01;2.70;99.90
23081;DHT22;11708;50.570;8.532;2023-04-26T02:11:26;2.70;99.90
23081;DHT22;11708;50.570;8.532;2023-04-26T02:13:52;2.70;99.90
23081;DHT22;11708;50.570;8.532;2023-04-26T02:16:18;2.70;99.90
23081;DHT22;11708;50.570;8.532;2023-04-26T02:18:43;2.60;99.90
23081;DHT22;11708;50.570;8.532;2023-04-26T02:21:12;2.60;99.90
23081;DHT22;11708;50.570;8.532;2023-04-26T02:23:38;2.60;99.90
23081;DHT22;11708;50.570;8.532;2023-04-26T02:26:03;2.60;99.90
23081;DHT22;11708;50.570;8.532;2023-04-26T02:28:30;2.60;99.90
23081;DHT22;11708;50.570;8.532;2023-04-26T02:30:56;2.60;99.90
23081;DHT22;11708;50.570;8.532;2023-04-26T02:33:22;2.60;99.90
23081;DHT22;11708;50.570;8.532;2023-04-26T02:35:48;2.50;99.90
23081;DHT22;11708;50.570;8.532;2023-04-26T02:38:13;2.50;99.90
23081;DHT22;11708;50.570;8.532;2023-04-26T02:40:39;2.50;99.90
23081;DHT22;11708;50.570;8.532;2023-04-26T02:43:05;2.40;99.90
23081;DHT22;11708;50.570;8.532;2023-04-26T02:45:31;2.40;99.90
23081;DHT22;11708;50.570;8.532;2023-04-26T02:47:56;2.30;99.90
23081;DHT22;11708;50.570;8.532;2023-04-26T02:50:22;2.30;99.90
23081;DHT22;11708;50.570;8.532;2023-04-26T02:52:48;2.30;99.90
23081;DHT22;11708;50.570;8.532;2023-04-26T02:55:13;2.30;99.90
23081;DHT22;11708;50.570;8.532;2023-04-26T02:57:39;2.30;99.90
23081;DHT22;11708;50.570;8.532;2023-04-26T03:00:05;2.30;99.90
23081;DHT22;11708;50.570;8.532;2023-04-26T03:02:32;2.30;99.90
23081;DHT22;11708;50.570;8.532;2023-04-26T03:04:58;2.30;99.90
23081;DHT22;11708;50.570;8.532;2023-04-26T03:07:23;2.30;99.90
23081;DHT22;11708;50.570;8.532;2023-04-26T03:09:49;2.20;99.90
23081;DHT22;11708;50.570;8.532;2023-04-26T03:12:14;2.20;99.90
23081;DHT22;11708;50.570;8.532;2023-04-26T03:14:41;2.20;99.90
23081;DHT22;11708;50.570;8.532;2023-04-26T03:17:06;2.20;99.90
23081;DHT22;11708;50.570;8.532;2023-04-26T03:19:32;2.10;99.90
23081;DHT22;11708;50.570;8.532;2023-04-26T03:21:58;2.20;99.90
23081;DHT22;11708;50.570;8.532;2023-04-26T03:24:24;2.10;99.90
23081;DHT22;11708;50.570;8.532;2023-04-26T03:26:49;2.20;99.90
23081;DHT22;11708;50.570;8.532;2023-04-26T03:29:16;2.10;99.90
23081;DHT22;11708;50.570;8.532;2023-04-26T03:31:41;2.10;99.90
23081;DHT22;11708;50.570;8.532;2023-04-26T03:34:07;2.10;99.90
23081;DHT22;11708;50.570;8.532;2023-04-26T03:36:33;2.10;99.90
23081;DHT22;11708;50.570;8.532;2023-04-26T03:38:58;2.10;99.90
23081;DHT22;11708;50.570;8.532;2023-04-26T03:41:24;2.00;99.90
23081;DHT22;11708;50.570;8.532;2023-04-26T03:43:50;2.00;99.90
23081;DHT22;11708;50.570;8.532;2023-04-26T03:46:15;2.00;99.90
23081;DHT22;11708;50.570;8.532;2023-04-26T03:48:41;2.00;99.90
23081;DHT22;11708;50.570;8.532;2023-04-26T03:51:07;2.00;99.90
23081;DHT22;11708;50.570;8.532;2023-04-26T03:53:32;1.90;99.90
23081;DHT22;11708;50.570;8.532;2023-04-26T03:55:58;1.90;99.90
23081;DHT22;11708;50.570;8.532;2023-04-26T03:58:24;1.90;99.90
23081;DHT22;11708;50.570;8.532;2023-04-26T04:00:50;1.80;99.90
23081;DHT22;11708;50.570;8.532;2023-04-26T04:03:16;1.80;99.90
23081;DHT22;11708;50.570;8.532;2023-04-26T04:05:42;1.80;99.90
23081;DHT22;11708;50.570;8.532;2023-04-26T04:08:08;1.70;99.90
23081;DHT22;11708;50.570;8.532;2023-04-26T04:10:34;1.80;99.90
23081;DHT22;11708;50.570;8.532;2023-04-26T04:13:01;1.70;99.90
23081;DHT22;11708;50.570;8.532;2023-04-26T04:15:26;1.70;99.90
23081;DHT22;11708;50.570;8.532;2023-04-26T04:17:52;1.60;99.90
23081;DHT22;11708;50.570;8.532;2023-04-26T04:20:17;1.60;99.90
23081;DHT22;11708;50.570;8.532;2023-04-26T04:22:44;1.60;99.90
23081;DHT22;11708;50.570;8.532;2023-04-26T04:25:10;1.60;99.90
23081;DHT22;11708;50.570;8.532;2023-04-26T04:27:36;1.60;99.90
23081;DHT22;11708;50.570;8.532;2023-04-26T04:30:03;1.60;99.90
23081;DHT22;11708;50.570;8.532;2023-04-26T04:32:31;1.60;99.90
23081;DHT22;11708;50.570;8.532;2023-04-26T04:34:57;1.50;99.90
23081;DHT22;11708;50.570;8.532;2023-04-26T04:37:23;1.60;99.90
23081;DHT22;11708;50.570;8.532;2023-04-26T04:39:51;1.60;99.90
23081;DHT22;11708;50.570;8.532;2023-04-26T04:42:16;1.60;99.90
23081;DHT22;11708;50.570;8.532;2023-04-26T04:44:42;1.60;99.90
23081;DHT22;11708;50.570;8.532;2023-04-26T04:47:08;1.60;99.90
23081;DHT22;11708;50.570;8.532;2023-04-26T04:49:33;1.60;99.90
23081;DHT22;11708;50.570;8.532;2023-04-26T04:51:59;1.50;99.90
23081;DHT22;11708;50.570;8.532;2023-04-26T04:54:25;1.60;99.90
23081;DHT22;11708;50.570;8.532;2023-04-26T04:56:50;1.60;99.90
23081;DHT22;11708;50.570;8.532;2023-04-26T04:59:16;1.60;99.90
23081;DHT22;11708;50.570;8.532;2023-04-26T05:01:41;1.60;99.90
23081;DHT22;11708;50.570;8.532;2023-04-26T05:04:07;1.60;99.90
23081;DHT22;11708;50.570;8.532;2023-04-26T05:06:32;1.60;99.90
23081;DHT22;11708;50.570;8.532;2023-04-26T05:08:58;1.60;99.90
23081;DHT22;11708;50.570;8.532;2023-04-26T05:11:24;1.60;99.90
23081;DHT22;11708;50.570;8.532;2023-04-26T05:13:50;1.60;99.90
23081;DHT22;11708;50.570;8.532;2023-04-26T05:16:15;1.60;99.90
23081;DHT22;11708;50.570;8.532;2023-04-26T05:18:41;1.60;99.90
23081;DHT22;11708;50.570;8.532;2023-04-26T05:21:07;1.60;99.90
23081;DHT22;11708;50.570;8.532;2023-04-26T05:23:32;1.70;99.90
23081;DHT22;11708;50.570;8.532;2023-04-26T05:26:05;1.70;99.90
23081;DHT22;11708;50.570;8.532;2023-04-26T05:28:31;1.70;99.90
23081;DHT22;11708;50.570;8.532;2023-04-26T05:30:58;1.70;99.90
23081;DHT22;11708;50.570;8.532;2023-04-26T05:33:24;1.80;99.90
23081;DHT22;11708;50.570;8.532;2023-04-26T05:35:49;1.80;99.90
23081;DHT22;11708;50.570;8.532;2023-04-26T05:38:16;1.90;99.90
23081;DHT22;11708;50.570;8.532;2023-04-26T05:40:42;1.90;99.90
23081;DHT22;11708;50.570;8.532;2023-04-26T05:43:08;1.90;99.90
23081;DHT22;11708;50.570;8.532;2023-04-26T05:45:33;2.00;99.90
23081;DHT22;11708;50.570;8.532;2023-04-26T05:47:59;2.10;99.90
23081;DHT22;11708;50.570;8.532;2023-04-26T05:50:25;2.20;99.90
23081;DHT22;11708;50.570;8.532;2023-04-26T05:52:50;2.30;99.90
23081;DHT22;11708;50.570;8.532;2023-04-26T05:55:16;2.30;99.90
23081;DHT22;11708;50.570;8.532;2023-04-26T05:57:43;2.40;99.90
23081;DHT22;11708;50.570;8.532;2023-04-26T06:00:09;2.40;99.90
23081;DHT22;11708;50.570;8.532;2023-04-26T06:02:35;2.50;99.90
23081;DHT22;11708;50.570;8.532;2023-04-26T06:05:01;2.60;99.90
23081;DHT22;11708;50.570;8.532;2023-04-26T06:07:26;2.60;99.90
23081;DHT22;11708;50.570;8.532;2023-04-26T06:09:52;2.70;99.90
23081;DHT22;11708;50.570;8.532;2023-04-26T06:12:17;2.80;99.90
23081;DHT22;11708;50.570;8.532;2023-04-26T06:14:43;2.90;99.90
23081;DHT22;11708;50.570;8.532;2023-04-26T06:17:08;3.00;99.90
23081;DHT22;11708;50.570;8.532;2023-04-26T06:19:34;3.10;99.90
23081;DHT22;11708;50.570;8.532;2023-04-26T06:22:00;3.20;99.90
23081;DHT22;11708;50.570;8.532;2023-04-26T06:24:25;3.30;99.90
23081;DHT22;11708;50.570;8.532;2023-04-26T06:26:51;3.30;99.90
23081;DHT22;11708;50.570;8.532;2023-04-26T06:29:17;3.40;99.90
23081;DHT22;11708;50.570;8.532;2023-04-26T06:31:42;3.50;99.90
23081;DHT22;11708;50.570;8.532;2023-04-26T06:34:08;3.50;99.90
23081;DHT22;11708;50.570;8.532;2023-04-26T06:36:34;3.70;99.90
23081;DHT22;11708;50.570;8.532;2023-04-26T06:38:59;3.70;99.90
23081;DHT22;11708;50.570;8.532;2023-04-26T06:41:25;3.80;99.90
23081;DHT22;11708;50.570;8.532;2023-04-26T06:43:51;3.90;99.90
23081;DHT22;11708;50.570;8.532;2023-04-26T06:46:16;4.00;99.90
23081;DHT22;11708;50.570;8.532;2023-04-26T06:48:42;4.10;99.90
23081;DHT22;11708;50.570;8.532;2023-04-26T06:51:08;4.20;99.90
23081;DHT22;11708;50.570;8.532;2023-04-26T06:53:34;4.30;99.90
23081;DHT22;11708;50.570;8.532;2023-04-26T06:56:00;4.40;99.90
23081;DHT22;11708;50.570;8.532;2023-04-26T06:58:25;4.50;99.90
23081;DHT22;11708;50.570;8.532;2023-04-26T07:00:51;4.60;99.90
23081;DHT22;11708;50.570;8.532;2023-04-26T07:03:16;4.70;99.90
23081;DHT22;11708;50.570;8.532;2023-04-26T07:05:42;4.80;99.90
23081;DHT22;11708;50.570;8.532;2023-04-26T07:08:07;4.90;99.90
23081;DHT22;11708;50.570;8.532;2023-04-26T07:10:33;5.00;99.90
23081;DHT22;11708;50.570;8.532;2023-04-26T07:12:59;5.20;99.90
23081;DHT22;11708;50.570;8.532;2023-04-26T07:15:25;5.30;99.90
23081;DHT22;11708;50.570;8.532;2023-04-26T07:17:50;5.30;99.90
23081;DHT22;11708;50.570;8.532;2023-04-26T07:20:16;5.50;99.90
23081;DHT22;11708;50.570;8.532;2023-04-26T07:22:45;5.50;99.90
23081;DHT22;11708;50.570;8.532;2023-04-26T07:25:11;5.40;99.90
23081;DHT22;11708;50.570;8.532;2023-04-26T07:27:37;5.60;99.90
23081;DHT22;11708;50.570;8.532;2023-04-26T07:30:03;5.80;99.90
23081;DHT22;11708;50.570;8.532;2023-04-26T07:32:29;5.80;99.90
23081;DHT22;11708;50.570;8.532;2023-04-26T07:34:55;6.00;99.90
23081;DHT22;11708;50.570;8.532;2023-04-26T07:37:21;6.00;99.90
23081;DHT22;11708;50.570;8.532;2023-04-26T07:39:46;6.00;99.90
23081;DHT22;11708;50.570;8.532;2023-04-26T07:42:12;6.10;99.90
23081;DHT22;11708;50.570;8.532;2023-04-26T07:44:37;6.20;99.90
23081;DHT22;11708;50.570;8.532;2023-04-26T07:47:03;6.30;99.90
23081;DHT22;11708;50.570;8.532;2023-04-26T07:49:29;6.40;99.90
23081;DHT22;11708;50.570;8.532;2023-04-26T07:51:54;6.50;99.90
23081;DHT22;11708;50.570;8.532;2023-04-26T07:54:23;6.60;99.90
23081;DHT22;11708;50.570;8.532;2023-04-26T07:56:48;6.70;99.90
23081;DHT22;11708;50.570;8.532;2023-04-26T07:59:14;6.90;99.90
23081;DHT22;11708;50.570;8.532;2023-04-26T08:01:40;7.00;99.90
23081;DHT22;11708;50.570;8.532;2023-04-26T08:04:06;7.00;99.90
23081;DHT22;11708;50.570;8.532;2023-04-26T08:06:32;7.10;99.90
23081;DHT22;11708;50.570;8.532;2023-04-26T08:08:58;7.20;99.90
23081;DHT22;11708;50.570;8.532;2023-04-26T08:11:23;7.20;99.90
23081;DHT22;11708;50.570;8.532;2023-04-26T08:13:49;7.30;99.90
23081;DHT22;11708;50.570;8.532;2023-04-26T08:16:16;7.40;99.90
23081;DHT22;11708;50.570;8.532;2023-04-26T08:18:41;7.60;99.90
23081;DHT22;11708;50.570;8.532;2023-04-26T08:21:07;7.70;99.90
23081;DHT22;11708;50.570;8.532;2023-04-26T08:23:35;7.80;99.90
23081;DHT22;11708;50.570;8.532;2023-04-26T08:26:00;7.80;99.90
23081;DHT22;11708;50.570;8.532;2023-04-26T08:28:26;7.80;99.90
23081;DHT22;11708;50.570;8.532;2023-04-26T08:30:52;7.80;99.90
23081;DHT22;11708;50.570;8.532;2023-04-26T08:33:17;7.80;99.90
23081;DHT22;11708;50.570;8.532;2023-04-26T08:35:43;7.80;99.90
23081;DHT22;11708;50.570;8.532;2023-04-26T08:38:09;7.90;99.90
23081;DHT22;11708;50.570;8.532;2023-04-26T08:40:35;7.90;99.90
23081;DHT22;11708;50.570;8.532;2023-04-26T08:43:01;7.80;99.90
23081;DHT22;11708;50.570;8.532;2023-04-26T08:45:26;7.80;99.90
23081;DHT22;11708;50.570;8.532;2023-04-26T08:47:54;7.80;99.90
23081;DHT22;11708;50.570;8.532;2023-04-26T08:50:22;7.80;99.90
23081;DHT22;11708;50.570;8.532;2023-04-26T08:52:49;7.90;99.90
23081;DHT22;11708;50.570;8.532;2023-04-26T08:55:16;8.00;99.90
23081;DHT22;11708;50.570;8.532;2023-04-26T08:57:45;8.00;99.90
23081;DHT22;11708;50.570;8.532;2023-04-26T09:00:12;8.00;99.90
23081;DHT22;11708;50.570;8.532;2023-04-26T09:02:40;8.10;99.90
23081;DHT22;11708;50.570;8.532;2023-04-26T09:05:07;8.50;99.90
23081;DHT22;11708;50.570;8.532;2023-04-26T09:07:45;8.40;99.90
23081;DHT22;11708;50.570;8.532;2023-04-26T09:10:13;8.60;99.90
23081;DHT22;11708;50.570;8.532;2023-04-26T09:12:39;8.80;99.90
23081;DHT22;11708;50.570;8.532;2023-04-26T09:15:05;9.20;99.90
23081;DHT22;11708;50.570;8.532;2023-04-26T09:17:37;9.10;99.90
23081;DHT22;11708;50.570;8.532;2023-04-26T09:20:21;9.20;99.90
23081;DHT22;11708;50.570;8.532;2023-04-26T09:22:47;9.40;99.90
23081;DHT22;11708;50.570;8.532;2023-04-26T09:25:16;9.40;99.90
23081;DHT22;11708;50.570;8.532;2023-04-26T09:27:43;9.50;99.90
23081;DHT22;11708;50.570;8.532;2023-04-26T09:30:15;9.60;99.90
23081;DHT22;11708;50.570;8.532;2023-04-26T09:32:52;9.60;99.90
23081;DHT22;11708;50.570;8.532;2023-04-26T09:35:35;9.60;99.90
23081;DHT22;11708;50.570;8.532;2023-04-26T09:38:06;9.60;99.90
23081;DHT22;11708;50.570;8.532;2023-04-26T09:43:03;9.60;99.90
23081;DHT22;11708;50.570;8.532;2023-04-26T09:45:31;9.60;99.90
23081;DHT22;11708;50.570;8.532;2023-04-26T09:50:47;9.80;99.90
23081;DHT22;11708;50.570;8.532;2023-04-26T09:53:50;9.90;99.90
23081;DHT22;11708;50.570;8.532;2023-04-26T09:56:17;9.90;99.90
23081;DHT22;11708;50.570;8.532;2023-04-26T10:01:15;10.10;99.90
23081;DHT22;11708;50.570;8.532;2023-04-26T10:03:45;10.20;99.90
23081;DHT22;11708;50.570;8.532;2023-04-26T10:06:15;10.30;99.90
23081;DHT22;11708;50.570;8.532;2023-04-26T10:08:41;10.40;99.90
23081;DHT22;11708;50.570;8.532;2023-04-26T10:11:07;10.30;99.90
23081;DHT22;11708;50.570;8.532;2023-04-26T10:13:37;10.20;99.90
23081;DHT22;11708;50.570;8.532;2023-04-26T10:16:03;10.10;99.90
23081;DHT22;11708;50.570;8.532;2023-04-26T10:18:30;10.20;99.90
23081;DHT22;11708;50.570;8.532;2023-04-26T10:20:59;10.30;99.90
23081;DHT22;11708;50.570;8.532;2023-04-26T10:23:25;10.50;99.90
23081;DHT22;11708;50.570;8.532;2023-04-26T10:25:52;10.50;99.90
23081;DHT22;11708;50.570;8.532;2023-04-26T10:31:10;10.70;99.90
23081;DHT22;11708;50.570;8.532;2023-04-26T10:33:36;10.80;99.90
23081;DHT22;11708;50.570;8.532;2023-04-26T10:36:10;10.80;99.90
23081;DHT22;11708;50.570;8.532;2023-04-26T10:38:41;10.90;99.90
23081;DHT22;11708;50.570;8.532;2023-04-26T10:41:28;10.90;99.90
23081;DHT22;11708;50.570;8.532;2023-04-26T10:43:57;10.90;99.90
23081;DHT22;11708;50.570;8.532;2023-04-26T10:46:37;10.90;99.90
23081;DHT22;11708;50.570;8.532;2023-04-26T10:49:16;10.90;99.90
23081;DHT22;11708;50.570;8.532;2023-04-26T10:52:07;10.80;99.90
23081;DHT22;11708;50.570;8.532;2023-04-26T10:54:44;10.70;99.90
23081;DHT22;11708;50.570;8.532;2023-04-26T10:57:10;10.70;99.90
23081;DHT22;11708;50.570;8.532;2023-04-26T10:59:36;10.60;99.90
23081;DHT22;11708;50.570;8.532;2023-04-26T11:02:01;10.60;99.90
23081;DHT22;11708;50.570;8.532;2023-04-26T11:04:53;10.70;99.90
23081;DHT22;11708;50.570;8.532;2023-04-26T11:07:37;10.80;99.90
23081;DHT22;11708;50.570;8.532;2023-04-26T11:10:07;10.80;99.90
23081;DHT22;11708;50.570;8.532;2023-04-26T11:12:34;11.00;99.90
23081;DHT22;11708;50.570;8.532;2023-04-26T11:15:00;10.90;99.90
23081;DHT22;11708;50.570;8.532;2023-04-26T11:17:26;11.20;99.90
23081;DHT22;11708;50.570;8.532;2023-04-26T11:19:51;11.20;99.90
23081;DHT22;11708;50.570;8.532;2023-04-26T11:22:21;11.30;99.90
23081;DHT22;11708;50.570;8.532;2023-04-26T11:24:48;11.50;99.90
23081;DHT22;11708;50.570;8.532;2023-04-26T11:27:14;11.50;99.90
23081;DHT22;11708;50.570;8.532;2023-04-26T11:29:40;11.40;99.90
23081;DHT22;11708;50.570;8.532;2023-04-26T11:32:06;11.40;99.90
23081;DHT22;11708;50.570;8.532;2023-04-26T11:34:35;11.40;99.90
23081;DHT22;11708;50.570;8.532;2023-04-26T11:37:06;11.50;99.90
23081;DHT22;11708;50.570;8.532;2023-04-26T11:39:33;11.70;99.90
23081;DHT22;11708;50.570;8.532;2023-04-26T11:42:10;11.90;99.90
23081;DHT22;11708;50.570;8.532;2023-04-26T11:44:37;12.10;99.90
23081;DHT22;11708;50.570;8.532;2023-04-26T11:47:04;12.20;99.90
23081;DHT22;11708;50.570;8.532;2023-04-26T11:49:31;12.30;99.90
23081;DHT22;11708;50.570;8.532;2023-04-26T11:51:57;12.50;99.90
23081;DHT22;11708;50.570;8.532;2023-04-26T11:54:33;12.90;99.90
23081;DHT22;11708;50.570;8.532;2023-04-26T11:57:00;13.40;99.90
23081;DHT22;11708;50.570;8.532;2023-04-26T11:59:29;13.50;99.90
23081;DHT22;11708;50.570;8.532;2023-04-26T12:01:58;13.70;99.90
23081;DHT22;11708;50.570;8.532;2023-04-26T12:04:29;14.00;99.90
23081;DHT22;11708;50.570;8.532;2023-04-26T12:06:55;14.20;97.50
23081;DHT22;11708;50.570;8.532;2023-04-26T12:09:28;14.30;96.90
23081;DHT22;11708;50.570;8.532;2023-04-26T12:12:00;14.30;97.60
23081;DHT22;11708;50.570;8.532;2023-04-26T12:14:31;14.00;95.60
23081;DHT22;11708;50.570;8.532;2023-04-26T12:17:01;13.60;95.20
23081;DHT22;11708;50.570;8.532;2023-04-26T12:19:39;13.50;96.20
23081;DHT22;11708;50.570;8.532;2023-04-26T12:22:06;13.70;98.70
23081;DHT22;11708;50.570;8.532;2023-04-26T12:24:33;14.00;95.90
23081;DHT22;11708;50.570;8.532;2023-04-26T12:27:02;14.20;95.20
23081;DHT22;11708;50.570;8.532;2023-04-26T12:29:29;14.20;92.70
23081;DHT22;11708;50.570;8.532;2023-04-26T12:31:56;14.20;92.40
23081;DHT22;11708;50.570;8.532;2023-04-26T12:34:23;14.40;92.20
23081;DHT22;11708;50.570;8.532;2023-04-26T12:36:49;14.60;91.30
23081;DHT22;11708;50.570;8.532;2023-04-26T12:39:14;14.80;90.80
23081;DHT22;11708;50.570;8.532;2023-04-26T12:41:41;14.80;90.40
23081;DHT22;11708;50.570;8.532;2023-04-26T12:44:08;15.00;91.00
23081;DHT22;11708;50.570;8.532;2023-04-26T12:46:34;15.60;90.50
23081;DHT22;11708;50.570;8.532;2023-04-26T12:49:00;16.20;90.50
23081;DHT22;11708;50.570;8.532;2023-04-26T12:51:25;16.90;84.70
23081;DHT22;11708;50.570;8.532;2023-04-26T12:53:51;17.30;81.60
23081;DHT22;11708;50.570;8.532;2023-04-26T12:56:17;17.50;80.40
23081;DHT22;11708;50.570;8.532;2023-04-26T12:58:42;17.60;79.80
23081;DHT22;11708;50.570;8.532;2023-04-26T13:01:11;17.40;74.60
23081;DHT22;11708;50.570;8.532;2023-04-26T13:03:38;17.30;75.10
23081;DHT22;11708;50.570;8.532;2023-04-26T13:06:03;17.10;76.10
23081;DHT22;11708;50.570;8.532;2023-04-26T13:08:30;17.00;73.60
23081;DHT22;11708;50.570;8.532;2023-04-26T13:10:56;16.50;75.50
23081;DHT22;11708;50.570;8.532;2023-04-26T13:13:22;16.00;76.50
23081;DHT22;11708;50.570;8.532;2023-04-26T13:15:48;15.90;75.80
23081;DHT22;11708;50.570;8.532;2023-04-26T13:18:13;15.70;75.80
23081;DHT22;11708;50.570;8.532;2023-04-26T13:20:40;15.60;75.40
23081;DHT22;11708;50.570;8.532;2023-04-26T13:23:05;15.40;74.60
23081;DHT22;11708;50.570;8.532;2023-04-26T13:25:31;15.30;74.60
23081;DHT22;11708;50.570;8.532;2023-04-26T13:27:57;15.70;76.00
23081;DHT22;11708;50.570;8.532;2023-04-26T13:30:22;15.60;72.80
23081;DHT22;11708;50.570;8.532;2023-04-26T13:32:48;15.20;73.30
23081;DHT22;11708;50.570;8.532;2023-04-26T13:35:13;14.30;84.10
23081;DHT22;11708;50.570;8.532;2023-04-26T13:37:39;14.60;77.20
23081;DHT22;11708;50.570;8.532;2023-04-26T13:40:06;14.60;77.70
23081;DHT22;11708;50.570;8.532;2023-04-26T13:42:32;14.90;78.30
23081;DHT22;11708;50.570;8.532;2023-04-26T13:44:58;15.20;83.10
23081;DHT22;11708;50.570;8.532;2023-04-26T13:47:24;15.10;77.10
23081;DHT22;11708;50.570;8.532;2023-04-26T13:49:50;14.70;75.00
23081;DHT22;11708;50.570;8.532;2023-04-26T13:52:15;14.60;77.20
23081;DHT22;11708;50.570;8.532;2023-04-26T13:54:41;14.80;79.70
23081;DHT22;11708;50.570;8.532;2023-04-26T13:57:06;15.40;78.90
23081;DHT22;11708;50.570;8.532;2023-04-26T13:59:32;15.80;77.10
23081;DHT22;11708;50.570;8.532;2023-04-26T14:01:58;16.20;74.70
23081;DHT22;11708;50.570;8.532;2023-04-26T14:04:23;16.50;73.60
23081;DHT22;11708;50.570;8.532;2023-04-26T14:06:49;16.70;78.30
23081;DHT22;11708;50.570;8.532;2023-04-26T14:09:15;16.80;72.60
23081;DHT22;11708;50.570;8.532;2023-04-26T14:11:40;16.70;72.70
23081;DHT22;11708;50.570;8.532;2023-04-26T14:14:06;16.40;71.80
23081;DHT22;11708;50.570;8.532;2023-04-26T14:16:32;16.30;71.70
23081;DHT22;11708;50.570;8.532;2023-04-26T14:18:57;16.10;72.30
23081;DHT22;11708;50.570;8.532;2023-04-26T14:21:23;15.80;71.70
23081;DHT22;11708;50.570;8.532;2023-04-26T14:23:49;15.70;72.20
23081;DHT22;11708;50.570;8.532;2023-04-26T14:26:15;15.50;72.10
23081;DHT22;11708;50.570;8.532;2023-04-26T14:28:40;15.30;74.20
23081;DHT22;11708;50.570;8.532;2023-04-26T14:31:06;15.30;73.90
23081;DHT22;11708;50.570;8.532;2023-04-26T14:33:32;15.10;73.80
23081;DHT22;11708;50.570;8.532;2023-04-26T14:35:58;14.80;73.70
23081;DHT22;11708;50.570;8.532;2023-04-26T14:38:24;14.70;73.70
23081;DHT22;11708;50.570;8.532;2023-04-26T14:40:49;14.60;75.00
23081;DHT22;11708;50.570;8.532;2023-04-26T14:43:15;14.70;75.50
23081;DHT22;11708;50.570;8.532;2023-04-26T14:45:43;14.90;75.60
23081;DHT22;11708;50.570;8.532;2023-04-26T14:48:09;15.10;75.10
23081;DHT22;11708;50.570;8.532;2023-04-26T14:50:36;15.40;74.00
23081;DHT22;11708;50.570;8.532;2023-04-26T14:53:02;15.70;73.20
23081;DHT22;11708;50.570;8.532;2023-04-26T14:55:27;15.90;72.90
23081;DHT22;11708;50.570;8.532;2023-04-26T14:57:53;16.20;72.70
23081;DHT22;11708;50.570;8.532;2023-04-26T15:00:19;16.40;74.10
23081;DHT22;11708;50.570;8.532;2023-04-26T15:02:45;16.80;73.40
23081;DHT22;11708;50.570;8.532;2023-04-26T15:05:11;17.50;76.50
23081;DHT22;11708;50.570;8.532;2023-04-26T15:07:40;17.70;70.40
23081;DHT22;11708;50.570;8.532;2023-04-26T15:10:07;18.20;70.80
23081;DHT22;11708;50.570;8.532;2023-04-26T15:12:35;18.50;68.50
23081;DHT22;11708;50.570;8.532;2023-04-26T15:15:02;19.30;71.30
23081;DHT22;11708;50.570;8.532;2023-04-26T15:17:31;19.60;67.50
23081;DHT22;11708;50.570;8.532;2023-04-26T15:19:56;20.20;62.20
23081;DHT22;11708;50.570;8.532;2023-04-26T15:22:22;20.30;59.80
23081;DHT22;11708;50.570;8.532;2023-04-26T15:24:48;19.20;59.90
23081;DHT22;11708;50.570;8.532;2023-04-26T15:27:15;18.90;61.50
23081;DHT22;11708;50.570;8.532;2023-04-26T15:29:40;18.70;61.30
23081;DHT22;11708;50.570;8.532;2023-04-26T15:32:06;18.50;63.30
23081;DHT22;11708;50.570;8.532;2023-04-26T15:34:38;18.30;64.60
23081;DHT22;11708;50.570;8.532;2023-04-26T15:37:04;18.00;65.00
23081;DHT22;11708;50.570;8.532;2023-04-26T15:39:30;17.70;65.80
23081;DHT22;11708;50.570;8.532;2023-04-26T15:41:55;17.30;65.30
23081;DHT22;11708;50.570;8.532;2023-04-26T15:44:22;17.10;66.20
23081;DHT22;11708;50.570;8.532;2023-04-26T15:46:47;16.80;67.10
23081;DHT22;11708;50.570;8.532;2023-04-26T15:49:13;16.60;68.90